sensor_id;sensor_type;location;lat;lon;timestamp;pressure;altitude;pressure_sealevel;temperature;humidity
6389;BME280;3227;42.654;23.360;2023-02-28T00:01:19;94850.91;;;9.59;96.84
6389;BME280;3227;42.654;23.360;2023-02-28T00:03:46;94874.03;;;9.68;97.33
6389;BME280;3227;42.654;23.360;2023-02-28T00:06:12;94878.22;;;9.60;95.77
6389;BME280;3227;42.654;23.360;2023-02-28T00:08:39;94855.00;;;9.38;96.09
6389;BME280;3227;42.654;23.360;2023-02-28T00:11:08;94873.94;;;9.57;95.45
6389;BME280;3227;42.654;23.360;2023-02-28T00:13:38;94875.63;;;9.55;95.53
6389;BME280;3227;42.654;23.360;2023-02-28T00:16:08;94893.47;;;9.49;95.40
6389;BME280;3227;42.654;23.360;2023-02-28T00:18:35;94871.97;;;9.32;95.96
6389;BME280;3227;42.654;23.360;2023-02-28T00:21:03;94864.41;;;9.42;97.69
6389;BME280;3227;42.654;23.360;2023-02-28T00:23:30;94856.72;;;9.38;97.05
6389;BME280;3227;42.654;23.360;2023-02-28T00:25:56;94877.94;;;9.31;96.40
6389;BME280;3227;42.654;23.360;2023-02-28T00:28:24;94824.06;;;9.12;97.22
6389;BME280;3227;42.654;23.360;2023-02-28T00:30:52;94887.47;;;9.44;96.45
6389;BME280;3227;42.654;23.360;2023-02-28T00:33:19;94892.66;;;9.53;97.32
6389;BME280;3227;42.654;23.360;2023-02-28T00:35:46;94875.47;;;9.40;97.70
6389;BME280;3227;42.654;23.360;2023-02-28T00:38:14;94876.06;;;9.16;97.21
6389;BME280;3227;42.654;23.360;2023-02-28T00:40:41;94891.38;;;9.14;97.32
6389;BME280;3227;42.654;23.360;2023-02-28T00:43:08;94873.06;;;8.76;98.25
6389;BME280;3227;42.654;23.360;2023-02-28T00:45:35;94860.78;;;8.47;100.00
6389;BME280;3227;42.654;23.360;2023-02-28T00:48:03;94863.94;;;8.30;100.00
6389;BME280;3227;42.654;23.360;2023-02-28T00:50:31;94868.63;;;8.03;100.00
6389;BME280;3227;42.654;23.360;2023-02-28T00:52:58;94874.41;;;7.91;100.00
6389;BME280;3227;42.654;23.360;2023-02-28T00:55:24;94789.38;;;7.37;100.00
6389;BME280;3227;42.654;23.360;2023-02-28T00:57:51;94861.78;;;8.00;100.00
6389;BME280;3227;42.654;23.360;2023-02-28T01:00:18;94881.03;;;8.34;100.00
6389;BME280;3227;42.654;23.360;2023-02-28T01:02:45;94887.94;;;8.42;100.00
6389;BME280;3227;42.654;23.360;2023-02-28T01:05:14;94876.09;;;8.47;100.00
6389;BME280;3227;42.654;23.360;2023-02-28T01:07:40;94894.94;;;8.55;100.00
6389;BME280;3227;42.654;23.360;2023-02-28T01:10:08;94874.69;;;8.70;100.00
6389;BME280;3227;42.654;23.360;2023-02-28T01:12:35;94875.47;;;8.66;100.00
6389;BME280;3227;42.654;23.360;2023-02-28T01:15:03;94871.22;;;8.63;100.00
6389;BME280;3227;42.654;23.360;2023-02-28T01:17:30;94873.72;;;8.60;100.00
6389;BME280;3227;42.654;23.360;2023-02-28T01:19:57;94874.75;;;8.76;100.00
6389;BME280;3227;42.654;23.360;2023-02-28T01:22:25;94869.47;;;8.61;100.00
6389;BME280;3227;42.654;23.360;2023-02-28T01:24:52;94869.94;;;8.32;100.00
6389;BME280;3227;42.654;23.360;2023-02-28T01:27:19;94865.25;;;8.04;100.00
6389;BME280;3227;42.654;23.360;2023-02-28T01:29:46;94866.78;;;7.93;100.00
6389;BME280;3227;42.654;23.360;2023-02-28T01:32:13;94869.19;;;7.82;100.00
6389;BME280;3227;42.654;23.360;2023-02-28T01:34:39;94864.81;;;7.77;100.00
6389;BME280;3227;42.654;23.360;2023-02-28T01:37:06;94850.31;;;7.73;100.00
6389;BME280;3227;42.654;23.360;2023-02-28T01:39:34;94856.75;;;8.05;100.00
6389;BME280;3227;42.654;23.360;2023-02-28T01:42:01;94870.69;;;8.27;100.00
6389;BME280;3227;42.654;23.360;2023-02-28T01:45:04;94871.78;;;8.43;100.00
6389;BME280;3227;42.654;23.360;2023-02-28T01:47:35;94875.38;;;8.57;100.00
6389;BME280;3227;42.654;23.360;2023-02-28T01:50:06;94870.38;;;8.64;100.00
6389;BME280;3227;42.654;23.360;2023-02-28T01:52:34;94879.00;;;8.72;100.00
6389;BME280;3227;42.654;23.360;2023-02-28T01:55:04;94888.44;;;8.78;99.94
6389;BME280;3227;42.654;23.360;2023-02-28T01:57:35;94817.38;;;8.47;99.71
6389;BME280;3227;42.654;23.360;2023-02-28T02:00:09;94854.19;;;8.65;98.81
6389;BME280;3227;42.654;23.360;2023-02-28T02:02:39;94871.44;;;8.83;99.01
6389;BME280;3227;42.654;23.360;2023-02-28T02:05:09;94875.75;;;8.86;99.09
6389;BME280;3227;42.654;23.360;2023-02-28T02:07:38;94878.28;;;8.84;98.71
6389;BME280;3227;42.654;23.360;2023-02-28T02:10:12;94877.47;;;8.88;99.22
6389;BME280;3227;42.654;23.360;2023-02-28T02:13:02;94875.88;;;8.96;98.74
6389;BME280;3227;42.654;23.360;2023-02-28T02:15:34;94874.09;;;8.91;98.52
6389;BME280;3227;42.654;23.360;2023-02-28T02:18:05;94828.56;;;8.58;98.67
6389;BME280;3227;42.654;23.360;2023-02-28T02:20:51;94870.72;;;8.93;98.72
6389;BME280;3227;42.654;23.360;2023-02-28T02:23:33;94853.56;;;8.83;98.39
6389;BME280;3227;42.654;23.360;2023-02-28T02:26:28;94868.13;;;8.90;98.63
6389;BME280;3227;42.654;23.360;2023-02-28T02:29:30;94863.00;;;8.87;98.63
6389;BME280;3227;42.654;23.360;2023-02-28T02:32:27;94863.78;;;8.83;99.12
6389;BME280;3227;42.654;23.360;2023-02-28T02:35:09;94868.03;;;8.81;99.46
6389;BME280;3227;42.654;23.360;2023-02-28T02:37:42;94868.88;;;8.80;99.13
6389;BME280;3227;42.654;23.360;2023-02-28T02:40:14;94865.53;;;8.86;99.72
6389;BME280;3227;42.654;23.360;2023-02-28T02:42:49;94868.91;;;8.85;99.38
6389;BME280;3227;42.654;23.360;2023-02-28T02:45:23;94866.31;;;8.82;99.45
6389;BME280;3227;42.654;23.360;2023-02-28T02:47:53;94883.38;;;8.84;99.40
6389;BME280;3227;42.654;23.360;2023-02-28T02:50:25;94878.25;;;8.81;100.00
6389;BME280;3227;42.654;23.360;2023-02-28T02:52:56;94832.03;;;8.63;99.71
6389;BME280;3227;42.654;23.360;2023-02-28T02:55:24;94885.09;;;8.85;100.00
6389;BME280;3227;42.654;23.360;2023-02-28T02:57:53;94882.66;;;8.94;99.48
6389;BME280;3227;42.654;23.360;2023-02-28T03:00:24;94881.78;;;8.92;99.22
6389;BME280;3227;42.654;23.360;2023-02-28T03:02:54;94893.78;;;8.99;99.11
6389;BME280;3227;42.654;23.360;2023-02-28T03:05:25;94899.72;;;8.98;98.91
6389;BME280;3227;42.654;23.360;2023-02-28T03:07:52;94908.25;;;8.96;98.64
6389;BME280;3227;42.654;23.360;2023-02-28T03:10:32;94909.03;;;8.93;98.69
6389;BME280;3227;42.654;23.360;2023-02-28T03:13:26;94891.19;;;8.95;98.52
6389;BME280;3227;42.654;23.360;2023-02-28T03:16:13;94913.56;;;9.15;98.63
6389;BME280;3227;42.654;23.360;2023-02-28T03:18:48;94916.91;;;9.10;97.45
6389;BME280;3227;42.654;23.360;2023-02-28T03:21:23;94908.19;;;8.93;97.45
6389;BME280;3227;42.654;23.360;2023-02-28T03:23:59;94912.50;;;8.98;98.24
6389;BME280;3227;42.654;23.360;2023-02-28T03:26:31;94923.66;;;9.03;97.67
6389;BME280;3227;42.654;23.360;2023-02-28T03:29:02;94867.75;;;8.60;98.18
6389;BME280;3227;42.654;23.360;2023-02-28T03:31:36;94928.75;;;9.02;98.01
6389;BME280;3227;42.654;23.360;2023-02-28T03:34:06;94936.09;;;8.76;97.82
6389;BME280;3227;42.654;23.360;2023-02-28T03:36:38;94923.72;;;8.45;99.59
6389;BME280;3227;42.654;23.360;2023-02-28T03:39:14;94926.34;;;8.49;100.00
6389;BME280;3227;42.654;23.360;2023-02-28T03:41:45;94907.22;;;8.23;99.78
6389;BME280;3227;42.654;23.360;2023-02-28T03:44:18;94934.09;;;8.01;100.00
6389;BME280;3227;42.654;23.360;2023-02-28T03:46:49;94865.50;;;7.67;100.00
6389;BME280;3227;42.654;23.360;2023-02-28T03:49:23;94946.19;;;8.11;100.00
6389;BME280;3227;42.654;23.360;2023-02-28T03:51:54;94939.44;;;8.15;100.00
6389;BME280;3227;42.654;23.360;2023-02-28T03:54:27;94942.00;;;8.16;100.00
6389;BME280;3227;42.654;23.360;2023-02-28T03:56:59;94939.56;;;8.24;100.00
6389;BME280;3227;42.654;23.360;2023-02-28T03:59:33;94927.53;;;8.15;100.00
6389;BME280;3227;42.654;23.360;2023-02-28T04:02:01;94950.69;;;8.27;100.00
6389;BME280;3227;42.654;23.360;2023-02-28T04:04:28;94918.97;;;8.12;100.00
6389;BME280;3227;42.654;23.360;2023-02-28T04:07:03;94945.41;;;8.15;100.00
6389;BME280;3227;42.654;23.360;2023-02-28T04:09:31;94934.78;;;7.91;100.00
6389;BME280;3227;42.654;23.360;2023-02-28T04:11:57;94933.19;;;7.96;100.00
6389;BME280;3227;42.654;23.360;2023-02-28T04:14:25;94937.38;;;7.94;100.00
6389;BME280;3227;42.654;23.360;2023-02-28T04:16:52;94942.31;;;7.83;100.00
6389;BME280;3227;42.654;23.360;2023-02-28T04:19:19;94893.63;;;7.21;100.00
6389;BME280;3227;42.654;23.360;2023-02-28T04:21:46;94932.38;;;7.50;100.00
6389;BME280;3227;42.654;23.360;2023-02-28T04:24:17;94933.19;;;7.46;100.00
6389;BME280;3227;42.654;23.360;2023-02-28T04:26:46;94929.00;;;7.51;100.00
6389;BME280;3227;42.654;23.360;2023-02-28T04:29:14;94935.41;;;7.78;100.00
6389;BME280;3227;42.654;23.360;2023-02-28T04:31:44;94943.38;;;7.96;100.00
6389;BME280;3227;42.654;23.360;2023-02-28T04:34:11;94937.53;;;8.03;100.00
6389;BME280;3227;42.654;23.360;2023-02-28T04:36:38;94932.44;;;8.03;100.00
6389;BME280;3227;42.654;23.360;2023-02-28T04:39:05;94945.25;;;8.08;100.00
6389;BME280;3227;42.654;23.360;2023-02-28T04:41:33;94938.25;;;7.94;100.00
6389;BME280;3227;42.654;23.360;2023-02-28T04:44:00;94950.97;;;7.93;100.00
6389;BME280;3227;42.654;23.360;2023-02-28T04:46:26;94924.31;;;7.76;100.00
6389;BME280;3227;42.654;23.360;2023-02-28T04:48:53;94966.59;;;8.11;100.00
6389;BME280;3227;42.654;23.360;2023-02-28T04:51:20;94959.72;;;8.06;100.00
6389;BME280;3227;42.654;23.360;2023-02-28T04:53:47;94960.59;;;8.09;100.00
6389;BME280;3227;42.654;23.360;2023-02-28T04:56:16;94967.38;;;8.06;100.00
6389;BME280;3227;42.654;23.360;2023-02-28T04:58:44;94963.22;;;8.12;100.00
6389;BME280;3227;42.654;23.360;2023-02-28T05:01:18;94959.94;;;8.21;100.00
6389;BME280;3227;42.654;23.360;2023-02-28T05:03:46;94898.94;;;7.82;100.00
6389;BME280;3227;42.654;23.360;2023-02-28T05:06:13;94960.72;;;8.15;100.00
6389;BME280;3227;42.654;23.360;2023-02-28T05:08:40;94920.94;;;7.77;100.00
6389;BME280;3227;42.654;23.360;2023-02-28T05:11:18;94965.53;;;7.98;100.00
6389;BME280;3227;42.654;23.360;2023-02-28T05:13:46;94974.09;;;8.02;100.00
6389;BME280;3227;42.654;23.360;2023-02-28T05:16:14;94968.09;;;8.00;100.00
6389;BME280;3227;42.654;23.360;2023-02-28T05:18:41;94954.38;;;7.93;100.00
6389;BME280;3227;42.654;23.360;2023-02-28T05:21:23;94975.28;;;8.24;100.00
6389;BME280;3227;42.654;23.360;2023-02-28T05:23:50;94979.72;;;8.32;100.00
6389;BME280;3227;42.654;23.360;2023-02-28T05:26:17;94971.75;;;8.16;100.00
6389;BME280;3227;42.654;23.360;2023-02-28T05:28:45;94986.09;;;8.06;100.00
6389;BME280;3227;42.654;23.360;2023-02-28T05:31:13;94985.38;;;8.15;100.00
6389;BME280;3227;42.654;23.360;2023-02-28T05:33:40;94983.53;;;8.08;100.00
6389;BME280;3227;42.654;23.360;2023-02-28T05:36:07;94920.91;;;7.74;100.00
6389;BME280;3227;42.654;23.360;2023-02-28T05:38:34;94994.94;;;8.28;100.00
6389;BME280;3227;42.654;23.360;2023-02-28T05:41:05;94990.78;;;8.33;100.00
6389;BME280;3227;42.654;23.360;2023-02-28T05:43:32;94999.44;;;8.41;100.00
6389;BME280;3227;42.654;23.360;2023-02-28T05:46:02;94934.13;;;8.02;100.00
6389;BME280;3227;42.654;23.360;2023-02-28T05:48:29;95001.19;;;8.44;100.00
6389;BME280;3227;42.654;23.360;2023-02-28T05:50:57;95009.72;;;8.46;100.00
6389;BME280;3227;42.654;23.360;2023-02-28T05:53:24;95007.41;;;8.61;100.00
6389;BME280;3227;42.654;23.360;2023-02-28T05:55:51;95013.41;;;8.63;99.79
6389;BME280;3227;42.654;23.360;2023-02-28T05:58:19;94965.19;;;8.30;99.98
6389;BME280;3227;42.654;23.360;2023-02-28T06:00:46;95013.44;;;8.66;99.58
6389;BME280;3227;42.654;23.360;2023-02-28T06:03:15;95008.44;;;8.75;100.00
6389;BME280;3227;42.654;23.360;2023-02-28T06:05:41;95005.84;;;8.70;98.68
6389;BME280;3227;42.654;23.360;2023-02-28T06:08:08;95009.16;;;8.63;98.78
6389;BME280;3227;42.654;23.360;2023-02-28T06:10:35;94992.75;;;8.49;98.84
6389;BME280;3227;42.654;23.360;2023-02-28T06:13:02;95000.50;;;8.57;98.83
6389;BME280;3227;42.654;23.360;2023-02-28T06:15:29;95012.53;;;8.62;99.02
6389;BME280;3227;42.654;23.360;2023-02-28T06:17:57;95002.38;;;8.67;98.83
6389;BME280;3227;42.654;23.360;2023-02-28T06:20:27;95002.28;;;8.61;99.50
6389;BME280;3227;42.654;23.360;2023-02-28T06:22:55;95009.75;;;8.47;99.91
6389;BME280;3227;42.654;23.360;2023-02-28T06:25:24;94976.22;;;8.27;99.90
6389;BME280;3227;42.654;23.360;2023-02-28T06:27:50;94938.19;;;7.91;100.00
6389;BME280;3227;42.654;23.360;2023-02-28T06:30:17;95006.66;;;8.15;100.00
6389;BME280;3227;42.654;23.360;2023-02-28T06:32:52;95010.03;;;8.14;100.00
6389;BME280;3227;42.654;23.360;2023-02-28T06:35:19;95010.13;;;8.20;100.00
6389;BME280;3227;42.654;23.360;2023-02-28T06:37:47;95008.97;;;8.01;100.00
6389;BME280;3227;42.654;23.360;2023-02-28T06:40:14;95010.31;;;7.83;100.00
6389;BME280;3227;42.654;23.360;2023-02-28T06:42:41;95013.63;;;7.77;100.00
6389;BME280;3227;42.654;23.360;2023-02-28T06:45:09;94974.97;;;7.54;100.00
6389;BME280;3227;42.654;23.360;2023-02-28T06:47:36;95029.59;;;7.66;100.00
6389;BME280;3227;42.654;23.360;2023-02-28T06:50:04;95010.31;;;7.36;100.00
6389;BME280;3227;42.654;23.360;2023-02-28T06:52:32;95025.91;;;7.51;100.00
6389;BME280;3227;42.654;23.360;2023-02-28T06:55:03;95027.97;;;7.71;100.00
6389;BME280;3227;42.654;23.360;2023-02-28T06:57:31;95009.81;;;7.54;100.00
6389;BME280;3227;42.654;23.360;2023-02-28T06:59:59;95039.94;;;7.75;100.00
6389;BME280;3227;42.654;23.360;2023-02-28T07:02:27;95032.56;;;7.88;100.00
6389;BME280;3227;42.654;23.360;2023-02-28T07:04:54;95031.03;;;7.99;100.00
6389;BME280;3227;42.654;23.360;2023-02-28T07:07:21;95024.13;;;7.94;100.00
6389;BME280;3227;42.654;23.360;2023-02-28T07:09:47;95003.28;;;7.70;100.00
6389;BME280;3227;42.654;23.360;2023-02-28T07:12:16;94989.63;;;7.66;100.00
6389;BME280;3227;42.654;23.360;2023-02-28T07:14:42;95023.47;;;8.04;100.00
6389;BME280;3227;42.654;23.360;2023-02-28T07:17:10;95016.66;;;8.03;100.00
6389;BME280;3227;42.654;23.360;2023-02-28T07:19:37;95018.47;;;8.10;100.00
6389;BME280;3227;42.654;23.360;2023-02-28T07:22:04;95021.75;;;8.03;100.00
6389;BME280;3227;42.654;23.360;2023-02-28T07:24:31;95021.91;;;8.12;100.00
6389;BME280;3227;42.654;23.360;2023-02-28T07:26:58;95006.44;;;8.03;100.00
6389;BME280;3227;42.654;23.360;2023-02-28T07:29:27;95022.81;;;8.16;100.00
6389;BME280;3227;42.654;23.360;2023-02-28T07:31:54;95034.09;;;8.28;100.00
6389;BME280;3227;42.654;23.360;2023-02-28T07:34:22;95029.31;;;8.47;100.00
6389;BME280;3227;42.654;23.360;2023-02-28T07:36:49;94977.59;;;8.09;100.00
6389;BME280;3227;42.654;23.360;2023-02-28T07:39:19;95027.53;;;8.43;100.00
6389;BME280;3227;42.654;23.360;2023-02-28T07:41:45;95017.00;;;8.77;100.00
6389;BME280;3227;42.654;23.360;2023-02-28T07:44:13;95033.72;;;9.15;100.00
6389;BME280;3227;42.654;23.360;2023-02-28T07:46:41;95033.16;;;9.39;100.00
6389;BME280;3227;42.654;23.360;2023-02-28T07:49:08;95030.88;;;9.61;99.63
6389;BME280;3227;42.654;23.360;2023-02-28T07:51:34;95026.59;;;9.60;98.29
6389;BME280;3227;42.654;23.360;2023-02-28T07:54:01;95026.56;;;9.55;98.26
6389;BME280;3227;42.654;23.360;2023-02-28T07:56:28;95020.56;;;9.53;99.14
6389;BME280;3227;42.654;23.360;2023-02-28T07:58:55;95028.41;;;9.68;97.81
6389;BME280;3227;42.654;23.360;2023-02-28T08:01:21;95014.72;;;9.63;98.66
6389;BME280;3227;42.654;23.360;2023-02-28T08:03:50;95020.53;;;9.50;98.78
6389;BME280;3227;42.654;23.360;2023-02-28T08:06:19;95025.63;;;9.50;100.00
6389;BME280;3227;42.654;23.360;2023-02-28T08:08:47;94973.22;;;9.16;100.00
6389;BME280;3227;42.654;23.360;2023-02-28T08:11:14;95001.41;;;9.21;100.00
6389;BME280;3227;42.654;23.360;2023-02-28T08:13:42;95020.50;;;9.47;100.00
6389;BME280;3227;42.654;23.360;2023-02-28T08:16:09;95019.72;;;9.55;100.00
6389;BME280;3227;42.654;23.360;2023-02-28T08:18:36;95022.50;;;9.75;100.00
6389;BME280;3227;42.654;23.360;2023-02-28T08:21:07;95024.28;;;9.79;100.00
6389;BME280;3227;42.654;23.360;2023-02-28T08:23:34;95015.13;;;10.03;100.00
6389;BME280;3227;42.654;23.360;2023-02-28T08:26:01;95021.34;;;10.26;100.00
6389;BME280;3227;42.654;23.360;2023-02-28T08:28:28;95022.38;;;10.45;100.00
6389;BME280;3227;42.654;23.360;2023-02-28T08:30:55;95020.75;;;10.57;99.98
6389;BME280;3227;42.654;23.360;2023-02-28T08:33:22;95027.53;;;10.51;100.00
6389;BME280;3227;42.654;23.360;2023-02-28T08:35:52;95027.63;;;10.64;99.20
6389;BME280;3227;42.654;23.360;2023-02-28T08:38:20;95030.97;;;10.54;99.58
6389;BME280;3227;42.654;23.360;2023-02-28T08:40:47;95025.03;;;10.58;98.93
6389;BME280;3227;42.654;23.360;2023-02-28T08:43:14;94998.44;;;10.43;98.35
6389;BME280;3227;42.654;23.360;2023-02-28T08:45:40;95035.50;;;10.89;98.47
6389;BME280;3227;42.654;23.360;2023-02-28T08:48:07;95041.50;;;10.95;97.28
6389;BME280;3227;42.654;23.360;2023-02-28T08:50:34;95030.44;;;11.04;95.96
6389;BME280;3227;42.654;23.360;2023-02-28T08:53:01;95023.72;;;11.18;95.65
6389;BME280;3227;42.654;23.360;2023-02-28T08:55:29;95029.78;;;11.32;96.08
6389;BME280;3227;42.654;23.360;2023-02-28T08:57:56;95032.38;;;11.35;95.60
6389;BME280;3227;42.654;23.360;2023-02-28T09:00:23;95023.72;;;11.17;95.88
6389;BME280;3227;42.654;23.360;2023-02-28T09:02:50;95021.94;;;11.03;96.55
6389;BME280;3227;42.654;23.360;2023-02-28T09:05:17;95038.31;;;11.33;94.57
6389;BME280;3227;42.654;23.360;2023-02-28T09:07:43;95045.28;;;11.52;94.79
6389;BME280;3227;42.654;23.360;2023-02-28T09:10:10;95036.66;;;11.41;94.29
6389;BME280;3227;42.654;23.360;2023-02-28T09:12:39;95032.22;;;11.11;95.17
6389;BME280;3227;42.654;23.360;2023-02-28T09:15:07;95033.84;;;10.94;95.44
6389;BME280;3227;42.654;23.360;2023-02-28T09:17:39;95032.19;;;11.06;94.85
6389;BME280;3227;42.654;23.360;2023-02-28T09:20:07;95025.44;;;11.22;94.65
6389;BME280;3227;42.654;23.360;2023-02-28T09:22:34;95033.19;;;11.37;95.15
6389;BME280;3227;42.654;23.360;2023-02-28T09:25:01;95024.69;;;11.41;94.64
6389;BME280;3227;42.654;23.360;2023-02-28T09:28:05;95034.16;;;11.58;94.16
6389;BME280;3227;42.654;23.360;2023-02-28T09:30:31;95029.84;;;11.49;94.70
6389;BME280;3227;42.654;23.360;2023-02-28T09:32:58;95018.81;;;11.67;93.39
6389;BME280;3227;42.654;23.360;2023-02-28T09:35:25;95023.94;;;11.73;93.25
6389;BME280;3227;42.654;23.360;2023-02-28T09:37:52;95024.03;;;11.91;91.92
6389;BME280;3227;42.654;23.360;2023-02-28T09:40:22;95020.63;;;11.95;90.95
6389;BME280;3227;42.654;23.360;2023-02-28T09:42:52;95029.19;;;12.03;90.13
6389;BME280;3227;42.654;23.360;2023-02-28T09:45:23;95034.34;;;12.12;90.11
6389;BME280;3227;42.654;23.360;2023-02-28T09:47:52;95012.09;;;12.11;89.08
6389;BME280;3227;42.654;23.360;2023-02-28T09:50:28;95019.78;;;12.01;88.73
6389;BME280;3227;42.654;23.360;2023-02-28T09:52:59;95011.00;;;11.42;91.25
6389;BME280;3227;42.654;23.360;2023-02-28T09:55:30;95019.72;;;11.81;91.18
6389;BME280;3227;42.654;23.360;2023-02-28T09:58:00;95015.38;;;11.68;91.59
6389;BME280;3227;42.654;23.360;2023-02-28T10:00:32;95023.06;;;11.60;90.98
6389;BME280;3227;42.654;23.360;2023-02-28T10:03:25;95011.13;;;11.68;91.81
6389;BME280;3227;42.654;23.360;2023-02-28T10:05:59;95018.03;;;11.83;89.18
6389;BME280;3227;42.654;23.360;2023-02-28T10:08:32;95011.88;;;11.48;90.76
6389;BME280;3227;42.654;23.360;2023-02-28T10:11:02;94997.22;;;11.24;93.03
6389;BME280;3227;42.654;23.360;2023-02-28T10:13:35;95001.47;;;11.17;92.20
6389;BME280;3227;42.654;23.360;2023-02-28T10:16:06;95010.94;;;11.29;93.01
6389;BME280;3227;42.654;23.360;2023-02-28T10:18:41;95011.09;;;11.61;91.25
6389;BME280;3227;42.654;23.360;2023-02-28T10:21:18;95001.78;;;11.89;90.26
6389;BME280;3227;42.654;23.360;2023-02-28T10:23:48;94986.38;;;11.84;88.83
6389;BME280;3227;42.654;23.360;2023-02-28T10:26:17;95000.94;;;11.93;88.58
6389;BME280;3227;42.654;23.360;2023-02-28T10:28:52;94993.22;;;11.94;88.88
6389;BME280;3227;42.654;23.360;2023-02-28T10:31:21;94991.53;;;11.93;88.37
6389;BME280;3227;42.654;23.360;2023-02-28T10:33:48;94985.56;;;12.15;87.95
6389;BME280;3227;42.654;23.360;2023-02-28T10:36:17;94989.84;;;12.32;86.08
6389;BME280;3227;42.654;23.360;2023-02-28T10:38:46;94985.56;;;12.31;85.75
6389;BME280;3227;42.654;23.360;2023-02-28T10:41:14;94986.41;;;12.63;84.85
6389;BME280;3227;42.654;23.360;2023-02-28T10:43:43;94987.28;;;12.67;83.39
6389;BME280;3227;42.654;23.360;2023-02-28T10:46:13;94967.56;;;12.75;83.22
6389;BME280;3227;42.654;23.360;2023-02-28T10:49:01;94965.84;;;12.55;84.19
6389;BME280;3227;42.654;23.360;2023-02-28T10:51:35;94966.72;;;12.32;84.86
6389;BME280;3227;42.654;23.360;2023-02-28T10:54:03;94957.28;;;12.29;85.12
6389;BME280;3227;42.654;23.360;2023-02-28T10:56:30;94969.28;;;12.24;83.91
6389;BME280;3227;42.654;23.360;2023-02-28T10:59:00;94965.00;;;12.15;84.72
6389;BME280;3227;42.654;23.360;2023-02-28T11:01:37;94950.44;;;12.08;85.61
6389;BME280;3227;42.654;23.360;2023-02-28T11:04:16;94957.28;;;12.22;85.19
6389;BME280;3227;42.654;23.360;2023-02-28T11:06:44;94947.91;;;12.43;84.08
6389;BME280;3227;42.654;23.360;2023-02-28T11:09:19;94945.31;;;12.25;84.30
6389;BME280;3227;42.654;23.360;2023-02-28T11:11:49;94937.59;;;12.01;86.16
6389;BME280;3227;42.654;23.360;2023-02-28T11:14:20;94941.88;;;12.22;84.62
6389;BME280;3227;42.654;23.360;2023-02-28T11:16:48;94935.03;;;12.22;84.66
6389;BME280;3227;42.654;23.360;2023-02-28T11:19:22;94941.00;;;11.95;85.74
6389;BME280;3227;42.654;23.360;2023-02-28T11:21:54;94936.72;;;11.76;87.28
6389;BME280;3227;42.654;23.360;2023-02-28T11:24:25;94869.88;;;11.36;87.66
6389;BME280;3227;42.654;23.360;2023-02-28T11:26:53;94925.53;;;11.59;87.85
6389;BME280;3227;42.654;23.360;2023-02-28T11:29:26;94910.09;;;11.42;87.79
6389;BME280;3227;42.654;23.360;2023-02-28T11:32:13;94943.47;;;11.50;88.49
6389;BME280;3227;42.654;23.360;2023-02-28T11:34:44;94933.22;;;11.59;88.38
6389;BME280;3227;42.654;23.360;2023-02-28T11:37:18;94931.56;;;11.79;87.77
6389;BME280;3227;42.654;23.360;2023-02-28T11:39:46;94930.75;;;12.07;85.74
6389;BME280;3227;42.654;23.360;2023-02-28T11:42:35;94918.75;;;12.20;85.93
6389;BME280;3227;42.654;23.360;2023-02-28T11:45:28;94938.47;;;12.13;86.03
6389;BME280;3227;42.654;23.360;2023-02-28T11:48:10;94922.16;;;12.52;84.60
6389;BME280;3227;42.654;23.360;2023-02-28T11:50:47;94929.84;;;12.71;82.83
6389;BME280;3227;42.654;23.360;2023-02-28T11:53:22;94907.63;;;12.35;84.88
6389;BME280;3227;42.654;23.360;2023-02-28T11:55:54;94920.44;;;12.57;84.48
6389;BME280;3227;42.654;23.360;2023-02-28T11:58:35;94921.28;;;12.76;83.03
6389;BME280;3227;42.654;23.360;2023-02-28T12:01:13;94923.00;;;12.65;81.59
6389;BME280;3227;42.654;23.360;2023-02-28T12:03:54;94905.91;;;12.05;85.49
6389;BME280;3227;42.654;23.360;2023-02-28T12:06:28;94910.19;;;12.21;86.18
6389;BME280;3227;42.654;23.360;2023-02-28T12:09:20;94717.63;;;11.02;85.93
6389;BME280;3227;42.654;23.360;2023-02-28T12:11:53;94911.03;;;12.37;84.60
6389;BME280;3227;42.654;23.360;2023-02-28T12:17:40;94906.78;;;11.98;86.17
6389;BME280;3227;42.654;23.360;2023-02-28T12:20:18;94868.25;;;11.76;85.69
6389;BME280;3227;42.654;23.360;2023-02-28T12:22:57;94905.06;;;12.29;84.58
6389;BME280;3227;42.654;23.360;2023-02-28T12:25:47;94895.63;;;12.43;84.12
6389;BME280;3227;42.654;23.360;2023-02-28T12:28:17;94917.91;;;12.50;83.18
6389;BME280;3227;42.654;23.360;2023-02-28T12:30:51;94926.47;;;12.31;83.33
6389;BME280;3227;42.654;23.360;2023-02-28T12:33:22;94907.63;;;11.95;83.63
6389;BME280;3227;42.654;23.360;2023-02-28T12:35:52;94859.69;;;11.82;83.58
6389;BME280;3227;42.654;23.360;2023-02-28T12:38:25;94906.78;;;11.98;85.06
6389;BME280;3227;42.654;23.360;2023-02-28T12:40:57;94914.50;;;12.17;84.49
6389;BME280;3227;42.654;23.360;2023-02-28T12:43:30;94917.91;;;12.07;85.38
6389;BME280;3227;42.654;23.360;2023-02-28T12:46:02;94908.50;;;12.00;85.05
6389;BME280;3227;42.654;23.360;2023-02-28T12:48:37;94906.78;;;12.01;84.13
6389;BME280;3227;42.654;23.360;2023-02-28T12:51:06;94869.97;;;11.97;83.36
6389;BME280;3227;42.654;23.360;2023-02-28T12:53:49;94891.34;;;12.39;82.80
6389;BME280;3227;42.654;23.360;2023-02-28T12:56:30;94893.06;;;12.22;82.37
6389;BME280;3227;42.654;23.360;2023-02-28T12:59:04;94891.34;;;12.49;81.86
6389;BME280;3227;42.654;23.360;2023-02-28T13:01:57;94902.41;;;12.74;80.24
6389;BME280;3227;42.654;23.360;2023-02-28T13:04:43;94901.56;;;12.74;79.27
6389;BME280;3227;42.654;23.360;2023-02-28T13:07:35;94908.41;;;12.84;78.81
6389;BME280;3227;42.654;23.360;2023-02-28T13:10:07;94917.81;;;12.86;79.60
6389;BME280;3227;42.654;23.360;2023-02-28T13:12:35;94884.41;;;12.71;79.62
6389;BME280;3227;42.654;23.360;2023-02-28T13:15:08;94881.00;;;12.74;79.77
6389;BME280;3227;42.654;23.360;2023-02-28T13:17:48;94901.50;;;12.87;79.43
6389;BME280;3227;42.654;23.360;2023-02-28T13:20:18;94894.69;;;12.71;79.49
6389;BME280;3227;42.654;23.360;2023-02-28T13:22:47;94899.88;;;12.67;80.08
6389;BME280;3227;42.654;23.360;2023-02-28T13:31:24;94890.44;;;12.64;79.38
6389;BME280;3227;42.654;23.360;2023-02-28T13:34:14;94905.84;;;12.69;77.95
6389;BME280;3227;42.654;23.360;2023-02-28T13:36:41;94897.28;;;12.76;77.38
6389;BME280;3227;42.654;23.360;2023-02-28T13:42:30;94835.63;;;12.56;77.37
6389;BME280;3227;42.654;23.360;2023-02-28T13:45:25;94881.81;;;12.88;77.82